sensor_id;sensor_type;location;lat;lon;timestamp;P1;durP1;ratioP1;P2;durP2;ratioP2
22150;SDS011;11241;47.078;15.462;2022-07-04T00:01:05;8.35;;;4.07;;
22150;SDS011;11241;47.078;15.462;2022-07-04T00:03:23;9.63;;;3.85;;
22150;SDS011;11241;47.078;15.462;2022-07-04T00:05:41;5.65;;;3.50;;
22150;SDS011;11241;47.078;15.462;2022-07-04T00:07:58;7.40;;;3.67;;
22150;SDS011;11241;47.078;15.462;2022-07-04T00:10:17;6.97;;;3.50;;
22150;SDS011;11241;47.078;15.462;2022-07-04T00:12:35;4.38;;;3.38;;
22150;SDS011;11241;47.078;15.462;2022-07-04T00:14:53;5.28;;;3.70;;
22150;SDS011;11241;47.078;15.462;2022-07-04T00:17:11;7.07;;;3.65;;
22150;SDS011;11241;47.078;15.462;2022-07-04T00:19:29;7.28;;;3.70;;
22150;SDS011;11241;47.078;15.462;2022-07-04T00:21:47;5.00;;;3.58;;
22150;SDS011;11241;47.078;15.462;2022-07-04T00:24:05;6.07;;;4.00;;
22150;SDS011;11241;47.078;15.462;2022-07-04T00:26:22;7.63;;;4.03;;
22150;SDS011;11241;47.078;15.462;2022-07-04T00:28:40;7.85;;;4.10;;
22150;SDS011;11241;47.078;15.462;2022-07-04T00:30:58;6.43;;;4.10;;
22150;SDS011;11241;47.078;15.462;2022-07-04T00:33:16;7.90;;;3.92;;
22150;SDS011;11241;47.078;15.462;2022-07-04T00:35:34;5.47;;;4.05;;
22150;SDS011;11241;47.078;15.462;2022-07-04T00:37:52;8.00;;;4.22;;
22150;SDS011;11241;47.078;15.462;2022-07-04T00:40:10;5.82;;;3.97;;
22150;SDS011;11241;47.078;15.462;2022-07-04T00:42:28;6.05;;;3.95;;
22150;SDS011;11241;47.078;15.462;2022-07-04T00:44:45;7.78;;;4.00;;
22150;SDS011;11241;47.078;15.462;2022-07-04T00:47:04;5.57;;;3.90;;
22150;SDS011;11241;47.078;15.462;2022-07-04T00:49:22;8.82;;;4.03;;
22150;SDS011;11241;47.078;15.462;2022-07-04T00:51:41;10.50;;;3.70;;
22150;SDS011;11241;47.078;15.462;2022-07-04T00:53:59;5.70;;;3.58;;
22150;SDS011;11241;47.078;15.462;2022-07-04T00:56:17;6.78;;;3.83;;
22150;SDS011;11241;47.078;15.462;2022-07-04T00:58:35;11.35;;;3.83;;
22150;SDS011;11241;47.078;15.462;2022-07-04T01:00:54;5.82;;;3.92;;
22150;SDS011;11241;47.078;15.462;2022-07-04T01:03:12;5.70;;;4.00;;
22150;SDS011;11241;47.078;15.462;2022-07-04T01:05:30;7.10;;;3.95;;
22150;SDS011;11241;47.078;15.462;2022-07-04T01:07:48;7.55;;;3.47;;
22150;SDS011;11241;47.078;15.462;2022-07-04T01:10:05;4.70;;;3.88;;
22150;SDS011;11241;47.078;15.462;2022-07-04T01:12:24;4.43;;;3.50;;
22150;SDS011;11241;47.078;15.462;2022-07-04T01:14:42;5.85;;;3.95;;
22150;SDS011;11241;47.078;15.462;2022-07-04T01:17:01;6.55;;;3.80;;
22150;SDS011;11241;47.078;15.462;2022-07-04T01:19:19;6.05;;;3.88;;
22150;SDS011;11241;47.078;15.462;2022-07-04T01:21:37;7.07;;;4.30;;
22150;SDS011;11241;47.078;15.462;2022-07-04T01:23:56;5.40;;;4.22;;
22150;SDS011;11241;47.078;15.462;2022-07-04T01:26:14;8.20;;;4.00;;
22150;SDS011;11241;47.078;15.462;2022-07-04T01:28:31;6.35;;;4.05;;
22150;SDS011;11241;47.078;15.462;2022-07-04T01:30:49;5.10;;;3.47;;
22150;SDS011;11241;47.078;15.462;2022-07-04T01:33:07;10.68;;;4.20;;
22150;SDS011;11241;47.078;15.462;2022-07-04T01:35:25;9.82;;;3.90;;
22150;SDS011;11241;47.078;15.462;2022-07-04T01:37:43;5.70;;;4.13;;
22150;SDS011;11241;47.078;15.462;2022-07-04T01:40:01;7.13;;;3.92;;
22150;SDS011;11241;47.078;15.462;2022-07-04T01:42:19;6.00;;;3.60;;
22150;SDS011;11241;47.078;15.462;2022-07-04T01:44:36;4.60;;;4.00;;
22150;SDS011;11241;47.078;15.462;2022-07-04T01:46:54;5.88;;;4.03;;
22150;SDS011;11241;47.078;15.462;2022-07-04T01:49:12;5.07;;;4.28;;
22150;SDS011;11241;47.078;15.462;2022-07-04T01:51:30;8.18;;;4.50;;
22150;SDS011;11241;47.078;15.462;2022-07-04T01:53:49;7.85;;;3.90;;
22150;SDS011;11241;47.078;15.462;2022-07-04T01:56:07;6.07;;;4.22;;
22150;SDS011;11241;47.078;15.462;2022-07-04T01:58:25;7.38;;;4.13;;
22150;SDS011;11241;47.078;15.462;2022-07-04T02:00:42;8.38;;;3.83;;
22150;SDS011;11241;47.078;15.462;2022-07-04T02:03:19;9.57;;;4.25;;
22150;SDS011;11241;47.078;15.462;2022-07-04T02:05:37;5.93;;;4.13;;
22150;SDS011;11241;47.078;15.462;2022-07-04T02:07:54;10.23;;;4.20;;
22150;SDS011;11241;47.078;15.462;2022-07-04T02:10:12;7.43;;;3.88;;
22150;SDS011;11241;47.078;15.462;2022-07-04T02:12:30;6.28;;;3.90;;
22150;SDS011;11241;47.078;15.462;2022-07-04T02:15:06;8.15;;;4.47;;
22150;SDS011;11241;47.078;15.462;2022-07-04T02:17:24;5.47;;;4.30;;
22150;SDS011;11241;47.078;15.462;2022-07-04T02:19:42;9.10;;;4.03;;
22150;SDS011;11241;47.078;15.462;2022-07-04T02:22:00;5.15;;;4.15;;
22150;SDS011;11241;47.078;15.462;2022-07-04T02:24:19;6.40;;;4.18;;
22150;SDS011;11241;47.078;15.462;2022-07-04T02:26:37;5.70;;;4.32;;
22150;SDS011;11241;47.078;15.462;2022-07-04T02:28:55;7.00;;;4.07;;
22150;SDS011;11241;47.078;15.462;2022-07-04T02:31:12;6.68;;;4.10;;
22150;SDS011;11241;47.078;15.462;2022-07-04T02:33:30;6.38;;;4.45;;
22150;SDS011;11241;47.078;15.462;2022-07-04T02:35:49;9.32;;;4.00;;
22150;SDS011;11241;47.078;15.462;2022-07-04T02:38:06;5.68;;;4.15;;
22150;SDS011;11241;47.078;15.462;2022-07-04T02:40:24;4.38;;;3.83;;
22150;SDS011;11241;47.078;15.462;2022-07-04T02:42:42;5.90;;;3.85;;
22150;SDS011;11241;47.078;15.462;2022-07-04T02:45:00;5.00;;;4.22;;
22150;SDS011;11241;47.078;15.462;2022-07-04T02:47:18;6.60;;;4.22;;
22150;SDS011;11241;47.078;15.462;2022-07-04T02:49:36;4.85;;;4.20;;
22150;SDS011;11241;47.078;15.462;2022-07-04T02:51:53;4.43;;;4.00;;
22150;SDS011;11241;47.078;15.462;2022-07-04T02:54:11;8.02;;;4.03;;
22150;SDS011;11241;47.078;15.462;2022-07-04T02:56:29;7.30;;;4.03;;
22150;SDS011;11241;47.078;15.462;2022-07-04T02:58:47;6.32;;;4.50;;
22150;SDS011;11241;47.078;15.462;2022-07-04T03:01:05;6.78;;;4.20;;
22150;SDS011;11241;47.078;15.462;2022-07-04T03:03:24;7.80;;;4.38;;
22150;SDS011;11241;47.078;15.462;2022-07-04T03:05:42;6.25;;;4.60;;
22150;SDS011;11241;47.078;15.462;2022-07-04T03:08:00;9.10;;;4.32;;
22150;SDS011;11241;47.078;15.462;2022-07-04T03:10:17;5.38;;;4.00;;
22150;SDS011;11241;47.078;15.462;2022-07-04T03:12:35;6.40;;;3.78;;
22150;SDS011;11241;47.078;15.462;2022-07-04T03:14:53;5.85;;;4.45;;
22150;SDS011;11241;47.078;15.462;2022-07-04T03:17:14;8.48;;;4.53;;
22150;SDS011;11241;47.078;15.462;2022-07-04T03:19:32;8.50;;;4.20;;
22150;SDS011;11241;47.078;15.462;2022-07-04T03:21:50;6.60;;;4.50;;
22150;SDS011;11241;47.078;15.462;2022-07-04T03:24:10;6.25;;;4.30;;
22150;SDS011;11241;47.078;15.462;2022-07-04T03:26:29;7.93;;;4.60;;
22150;SDS011;11241;47.078;15.462;2022-07-04T03:28:47;7.65;;;4.72;;
22150;SDS011;11241;47.078;15.462;2022-07-04T03:31:05;7.85;;;4.50;;
22150;SDS011;11241;47.078;15.462;2022-07-04T03:33:23;9.20;;;4.82;;
22150;SDS011;11241;47.078;15.462;2022-07-04T03:35:41;7.35;;;4.30;;
22150;SDS011;11241;47.078;15.462;2022-07-04T03:37:58;13.82;;;4.30;;
22150;SDS011;11241;47.078;15.462;2022-07-04T03:40:17;8.35;;;4.57;;
22150;SDS011;11241;47.078;15.462;2022-07-04T03:42:35;4.90;;;4.20;;
22150;SDS011;11241;47.078;15.462;2022-07-04T03:44:53;6.80;;;4.55;;
22150;SDS011;11241;47.078;15.462;2022-07-04T03:47:11;7.28;;;4.45;;
22150;SDS011;11241;47.078;15.462;2022-07-04T03:49:29;11.05;;;4.75;;
22150;SDS011;11241;47.078;15.462;2022-07-04T03:51:47;6.50;;;4.60;;
22150;SDS011;11241;47.078;15.462;2022-07-04T03:54:04;6.45;;;4.22;;
22150;SDS011;11241;47.078;15.462;2022-07-04T03:56:22;8.63;;;4.68;;
22150;SDS011;11241;47.078;15.462;2022-07-04T03:58:40;6.22;;;4.10;;
22150;SDS011;11241;47.078;15.462;2022-07-04T04:01:05;8.38;;;4.70;;
22150;SDS011;11241;47.078;15.462;2022-07-04T04:03:23;11.60;;;4.90;;
22150;SDS011;11241;47.078;15.462;2022-07-04T04:06:00;8.63;;;4.65;;
22150;SDS011;11241;47.078;15.462;2022-07-04T04:08:17;8.07;;;4.57;;
22150;SDS011;11241;47.078;15.462;2022-07-04T04:10:35;6.75;;;4.90;;
22150;SDS011;11241;47.078;15.462;2022-07-04T04:12:53;6.35;;;4.85;;
22150;SDS011;11241;47.078;15.462;2022-07-04T04:15:11;11.02;;;5.00;;
22150;SDS011;11241;47.078;15.462;2022-07-04T04:17:29;6.50;;;4.85;;
22150;SDS011;11241;47.078;15.462;2022-07-04T04:19:46;10.82;;;4.85;;
22150;SDS011;11241;47.078;15.462;2022-07-04T04:22:04;9.35;;;4.97;;
22150;SDS011;11241;47.078;15.462;2022-07-04T04:24:22;6.07;;;4.75;;
22150;SDS011;11241;47.078;15.462;2022-07-04T04:26:40;7.00;;;4.63;;
22150;SDS011;11241;47.078;15.462;2022-07-04T04:28:58;7.47;;;4.63;;
22150;SDS011;11241;47.078;15.462;2022-07-04T04:31:16;13.45;;;5.25;;
22150;SDS011;11241;47.078;15.462;2022-07-04T04:33:34;9.55;;;4.55;;
22150;SDS011;11241;47.078;15.462;2022-07-04T04:35:52;10.18;;;5.15;;
22150;SDS011;11241;47.078;15.462;2022-07-04T04:38:10;10.05;;;4.75;;
22150;SDS011;11241;47.078;15.462;2022-07-04T04:40:28;9.88;;;5.00;;
22150;SDS011;11241;47.078;15.462;2022-07-04T04:42:46;9.63;;;4.72;;
22150;SDS011;11241;47.078;15.462;2022-07-04T04:45:04;7.82;;;4.95;;
22150;SDS011;11241;47.078;15.462;2022-07-04T04:47:22;8.85;;;5.45;;
22150;SDS011;11241;47.078;15.462;2022-07-04T04:49:40;9.80;;;5.30;;
22150;SDS011;11241;47.078;15.462;2022-07-04T04:51:58;7.18;;;5.38;;
22150;SDS011;11241;47.078;15.462;2022-07-04T04:54:16;10.02;;;5.70;;
22150;SDS011;11241;47.078;15.462;2022-07-04T04:56:34;6.60;;;5.07;;
22150;SDS011;11241;47.078;15.462;2022-07-04T04:58:51;6.85;;;5.28;;
22150;SDS011;11241;47.078;15.462;2022-07-04T05:01:09;12.10;;;5.43;;
22150;SDS011;11241;47.078;15.462;2022-07-04T05:03:47;11.80;;;5.20;;
22150;SDS011;11241;47.078;15.462;2022-07-04T05:06:05;9.13;;;5.72;;
22150;SDS011;11241;47.078;15.462;2022-07-04T05:08:23;8.23;;;5.32;;
22150;SDS011;11241;47.078;15.462;2022-07-04T05:10:42;9.63;;;5.50;;
22150;SDS011;11241;47.078;15.462;2022-07-04T05:13:00;9.43;;;5.32;;
22150;SDS011;11241;47.078;15.462;2022-07-04T05:15:18;5.78;;;4.85;;
22150;SDS011;11241;47.078;15.462;2022-07-04T05:17:35;11.98;;;5.28;;
22150;SDS011;11241;47.078;15.462;2022-07-04T05:19:53;17.73;;;6.00;;
22150;SDS011;11241;47.078;15.462;2022-07-04T05:22:11;10.95;;;5.18;;
22150;SDS011;11241;47.078;15.462;2022-07-04T05:24:29;10.88;;;5.20;;
22150;SDS011;11241;47.078;15.462;2022-07-04T05:26:47;6.47;;;5.18;;
22150;SDS011;11241;47.078;15.462;2022-07-04T05:29:04;8.73;;;5.28;;
22150;SDS011;11241;47.078;15.462;2022-07-04T05:31:22;11.25;;;5.32;;
22150;SDS011;11241;47.078;15.462;2022-07-04T05:33:41;8.57;;;4.75;;
22150;SDS011;11241;47.078;15.462;2022-07-04T05:35:59;8.88;;;5.45;;
22150;SDS011;11241;47.078;15.462;2022-07-04T05:38:17;9.85;;;5.47;;
22150;SDS011;11241;47.078;15.462;2022-07-04T05:40:35;8.30;;;5.07;;
22150;SDS011;11241;47.078;15.462;2022-07-04T05:42:52;14.57;;;5.55;;
22150;SDS011;11241;47.078;15.462;2022-07-04T05:45:10;13.55;;;5.25;;
22150;SDS011;11241;47.078;15.462;2022-07-04T05:47:28;12.75;;;4.88;;
22150;SDS011;11241;47.078;15.462;2022-07-04T05:49:46;11.75;;;5.18;;
22150;SDS011;11241;47.078;15.462;2022-07-04T05:52:04;12.40;;;5.78;;
22150;SDS011;11241;47.078;15.462;2022-07-04T05:54:22;10.38;;;5.22;;
22150;SDS011;11241;47.078;15.462;2022-07-04T05:56:40;8.23;;;5.10;;
22150;SDS011;11241;47.078;15.462;2022-07-04T05:58:59;10.50;;;5.78;;
22150;SDS011;11241;47.078;15.462;2022-07-04T06:01:16;14.77;;;5.30;;
22150;SDS011;11241;47.078;15.462;2022-07-04T06:03:34;9.98;;;5.32;;
22150;SDS011;11241;47.078;15.462;2022-07-04T06:05:55;9.30;;;5.18;;
22150;SDS011;11241;47.078;15.462;2022-07-04T06:08:14;7.60;;;5.15;;
22150;SDS011;11241;47.078;15.462;2022-07-04T06:10:32;9.07;;;5.47;;
22150;SDS011;11241;47.078;15.462;2022-07-04T06:12:52;8.27;;;5.05;;
22150;SDS011;11241;47.078;15.462;2022-07-04T06:15:11;14.07;;;5.43;;
22150;SDS011;11241;47.078;15.462;2022-07-04T06:17:29;10.65;;;5.32;;
22150;SDS011;11241;47.078;15.462;2022-07-04T06:19:47;9.55;;;5.07;;
22150;SDS011;11241;47.078;15.462;2022-07-04T06:22:05;8.70;;;5.00;;
22150;SDS011;11241;47.078;15.462;2022-07-04T06:24:23;13.57;;;4.95;;
22150;SDS011;11241;47.078;15.462;2022-07-04T06:26:41;10.20;;;5.50;;
22150;SDS011;11241;47.078;15.462;2022-07-04T06:28:59;15.07;;;5.55;;
22150;SDS011;11241;47.078;15.462;2022-07-04T06:31:17;12.70;;;5.20;;
22150;SDS011;11241;47.078;15.462;2022-07-04T06:33:35;15.25;;;5.85;;
22150;SDS011;11241;47.078;15.462;2022-07-04T06:36:12;8.25;;;5.35;;
22150;SDS011;11241;47.078;15.462;2022-07-04T06:38:30;9.05;;;5.53;;
22150;SDS011;11241;47.078;15.462;2022-07-04T06:40:49;11.45;;;5.60;;
22150;SDS011;11241;47.078;15.462;2022-07-04T06:43:07;11.48;;;5.55;;
22150;SDS011;11241;47.078;15.462;2022-07-04T06:45:25;8.23;;;5.50;;
22150;SDS011;11241;47.078;15.462;2022-07-04T06:47:43;9.40;;;5.10;;
22150;SDS011;11241;47.078;15.462;2022-07-04T06:50:01;13.35;;;5.47;;
22150;SDS011;11241;47.078;15.462;2022-07-04T06:52:39;12.35;;;5.93;;
22150;SDS011;11241;47.078;15.462;2022-07-04T06:54:57;6.13;;;5.10;;
22150;SDS011;11241;47.078;15.462;2022-07-04T06:57:22;8.43;;;5.43;;
22150;SDS011;11241;47.078;15.462;2022-07-04T06:59:47;10.35;;;5.78;;
22150;SDS011;11241;47.078;15.462;2022-07-04T07:02:06;8.15;;;5.57;;
22150;SDS011;11241;47.078;15.462;2022-07-04T07:04:24;11.77;;;5.78;;
22150;SDS011;11241;47.078;15.462;2022-07-04T07:06:42;13.93;;;4.78;;
22150;SDS011;11241;47.078;15.462;2022-07-04T07:09:00;9.85;;;5.18;;
22150;SDS011;11241;47.078;15.462;2022-07-04T07:11:18;9.82;;;5.20;;
22150;SDS011;11241;47.078;15.462;2022-07-04T07:13:37;11.82;;;5.75;;
22150;SDS011;11241;47.078;15.462;2022-07-04T07:15:54;9.40;;;6.00;;
22150;SDS011;11241;47.078;15.462;2022-07-04T07:18:13;13.65;;;5.80;;
22150;SDS011;11241;47.078;15.462;2022-07-04T07:20:31;8.18;;;5.35;;
22150;SDS011;11241;47.078;15.462;2022-07-04T07:22:49;11.75;;;5.63;;
22150;SDS011;11241;47.078;15.462;2022-07-04T07:25:07;12.52;;;5.95;;
22150;SDS011;11241;47.078;15.462;2022-07-04T07:27:25;10.70;;;5.57;;
22150;SDS011;11241;47.078;15.462;2022-07-04T07:29:43;13.20;;;5.72;;
22150;SDS011;11241;47.078;15.462;2022-07-04T07:32:02;12.60;;;5.63;;
22150;SDS011;11241;47.078;15.462;2022-07-04T07:34:20;12.95;;;5.32;;
22150;SDS011;11241;47.078;15.462;2022-07-04T07:36:37;12.20;;;5.40;;
22150;SDS011;11241;47.078;15.462;2022-07-04T07:38:55;9.73;;;5.03;;
22150;SDS011;11241;47.078;15.462;2022-07-04T07:41:13;13.48;;;5.15;;
22150;SDS011;11241;47.078;15.462;2022-07-04T07:43:32;8.13;;;4.85;;
22150;SDS011;11241;47.078;15.462;2022-07-04T07:45:49;10.68;;;4.55;;
22150;SDS011;11241;47.078;15.462;2022-07-04T07:48:07;7.22;;;3.97;;
22150;SDS011;11241;47.078;15.462;2022-07-04T07:50:26;7.20;;;4.03;;
22150;SDS011;11241;47.078;15.462;2022-07-04T07:52:44;5.63;;;3.63;;
22150;SDS011;11241;47.078;15.462;2022-07-04T07:55:02;10.60;;;3.72;;
22150;SDS011;11241;47.078;15.462;2022-07-04T07:57:20;7.13;;;3.25;;
22150;SDS011;11241;47.078;15.462;2022-07-04T07:59:38;8.35;;;3.58;;
22150;SDS011;11241;47.078;15.462;2022-07-04T08:01:55;6.50;;;3.22;;
22150;SDS011;11241;47.078;15.462;2022-07-04T08:04:13;5.13;;;3.05;;
22150;SDS011;11241;47.078;15.462;2022-07-04T08:06:50;11.82;;;3.05;;
22150;SDS011;11241;47.078;15.462;2022-07-04T08:09:27;5.57;;;2.75;;
22150;SDS011;11241;47.078;15.462;2022-07-04T08:11:45;5.95;;;2.83;;
22150;SDS011;11241;47.078;15.462;2022-07-04T08:14:04;6.85;;;2.97;;
22150;SDS011;11241;47.078;15.462;2022-07-04T08:16:24;3.67;;;2.78;;
22150;SDS011;11241;47.078;15.462;2022-07-04T08:19:02;7.32;;;2.88;;
22150;SDS011;11241;47.078;15.462;2022-07-04T08:21:20;4.35;;;2.70;;
22150;SDS011;11241;47.078;15.462;2022-07-04T08:23:39;7.13;;;2.78;;
22150;SDS011;11241;47.078;15.462;2022-07-04T08:26:03;4.18;;;2.85;;
22150;SDS011;11241;47.078;15.462;2022-07-04T08:28:21;3.15;;;2.60;;
22150;SDS011;11241;47.078;15.462;2022-07-04T08:30:39;3.90;;;2.65;;
22150;SDS011;11241;47.078;15.462;2022-07-04T08:32:57;8.57;;;2.92;;
22150;SDS011;11241;47.078;15.462;2022-07-04T08:35:14;3.15;;;2.65;;
22150;SDS011;11241;47.078;15.462;2022-07-04T08:37:32;7.00;;;2.92;;
22150;SDS011;11241;47.078;15.462;2022-07-04T08:39:50;8.80;;;3.28;;
22150;SDS011;11241;47.078;15.462;2022-07-04T08:42:26;7.68;;;3.42;;
22150;SDS011;11241;47.078;15.462;2022-07-04T08:44:50;5.82;;;3.10;;
22150;SDS011;11241;47.078;15.462;2022-07-04T08:47:08;6.75;;;2.90;;
22150;SDS011;11241;47.078;15.462;2022-07-04T08:49:32;9.82;;;3.55;;
22150;SDS011;11241;47.078;15.462;2022-07-04T08:51:52;4.95;;;2.83;;
22150;SDS011;11241;47.078;15.462;2022-07-04T08:54:11;7.07;;;3.25;;
22150;SDS011;11241;47.078;15.462;2022-07-04T08:56:49;10.63;;;3.55;;
22150;SDS011;11241;47.078;15.462;2022-07-04T08:59:26;4.50;;;2.75;;
22150;SDS011;11241;47.078;15.462;2022-07-04T09:01:43;5.60;;;3.30;;
22150;SDS011;11241;47.078;15.462;2022-07-04T09:04:02;6.88;;;3.40;;
22150;SDS011;11241;47.078;15.462;2022-07-04T09:06:20;4.82;;;3.20;;
22150;SDS011;11241;47.078;15.462;2022-07-04T09:08:39;11.32;;;3.30;;
22150;SDS011;11241;47.078;15.462;2022-07-04T09:10:57;6.63;;;2.90;;
22150;SDS011;11241;47.078;15.462;2022-07-04T09:13:15;8.23;;;3.28;;
22150;SDS011;11241;47.078;15.462;2022-07-04T09:15:36;11.32;;;2.80;;
22150;SDS011;11241;47.078;15.462;2022-07-04T09:17:55;5.40;;;3.70;;
22150;SDS011;11241;47.078;15.462;2022-07-04T09:20:20;4.70;;;3.28;;
22150;SDS011;11241;47.078;15.462;2022-07-04T09:22:38;11.57;;;3.63;;
22150;SDS011;11241;47.078;15.462;2022-07-04T09:24:55;5.40;;;3.08;;
22150;SDS011;11241;47.078;15.462;2022-07-04T09:27:28;8.63;;;3.08;;
22150;SDS011;11241;47.078;15.462;2022-07-04T09:29:53;6.28;;;3.42;;
22150;SDS011;11241;47.078;15.462;2022-07-04T09:32:10;4.70;;;3.35;;
22150;SDS011;11241;47.078;15.462;2022-07-04T09:34:28;4.70;;;3.40;;
22150;SDS011;11241;47.078;15.462;2022-07-04T09:36:51;4.85;;;3.58;;
22150;SDS011;11241;47.078;15.462;2022-07-04T09:41:29;5.22;;;3.35;;
22150;SDS011;11241;47.078;15.462;2022-07-04T09:44:01;8.80;;;3.47;;
22150;SDS011;11241;47.078;15.462;2022-07-04T09:46:21;6.43;;;3.72;;
22150;SDS011;11241;47.078;15.462;2022-07-04T09:48:49;13.32;;;4.25;;
22150;SDS011;11241;47.078;15.462;2022-07-04T09:51:07;7.72;;;3.50;;
22150;SDS011;11241;47.078;15.462;2022-07-04T09:53:27;8.20;;;3.55;;
22150;SDS011;11241;47.078;15.462;2022-07-04T09:55:45;12.45;;;3.53;;
22150;SDS011;11241;47.078;15.462;2022-07-04T09:58:04;9.60;;;3.47;;
22150;SDS011;11241;47.078;15.462;2022-07-04T10:00:27;7.60;;;4.97;;
22150;SDS011;11241;47.078;15.462;2022-07-04T10:02:45;12.23;;;3.72;;
22150;SDS011;11241;47.078;15.462;2022-07-04T10:05:06;9.25;;;3.65;;
22150;SDS011;11241;47.078;15.462;2022-07-04T10:07:36;7.75;;;3.47;;
22150;SDS011;11241;47.078;15.462;2022-07-04T10:09:59;5.72;;;3.50;;
22150;SDS011;11241;47.078;15.462;2022-07-04T10:12:25;5.07;;;3.55;;
22150;SDS011;11241;47.078;15.462;2022-07-04T10:14:43;5.25;;;3.03;;
22150;SDS011;11241;47.078;15.462;2022-07-04T10:17:01;4.63;;;3.65;;
22150;SDS011;11241;47.078;15.462;2022-07-04T10:19:19;8.60;;;3.33;;
22150;SDS011;11241;47.078;15.462;2022-07-04T10:21:37;9.05;;;3.55;;
22150;SDS011;11241;47.078;15.462;2022-07-04T10:23:55;4.88;;;3.38;;
22150;SDS011;11241;47.078;15.462;2022-07-04T10:26:13;12.63;;;4.68;;
22150;SDS011;11241;47.078;15.462;2022-07-04T10:28:31;7.00;;;3.88;;
22150;SDS011;11241;47.078;15.462;2022-07-04T10:30:50;5.88;;;3.40;;
22150;SDS011;11241;47.078;15.462;2022-07-04T10:33:09;7.15;;;3.30;;
22150;SDS011;11241;47.078;15.462;2022-07-04T10:38:04;5.13;;;3.60;;
22150;SDS011;11241;47.078;15.462;2022-07-04T10:40:45;4.45;;;3.53;;
22150;SDS011;11241;47.078;15.462;2022-07-04T10:43:07;5.13;;;3.80;;
22150;SDS011;11241;47.078;15.462;2022-07-04T10:45:41;7.00;;;3.58;;
22150;SDS011;11241;47.078;15.462;2022-07-04T10:47:59;6.80;;;3.85;;
22150;SDS011;11241;47.078;15.462;2022-07-04T10:50:38;8.85;;;3.60;;
22150;SDS011;11241;47.078;15.462;2022-07-04T10:53:10;6.10;;;3.40;;
22150;SDS011;11241;47.078;15.462;2022-07-04T10:55:28;5.75;;;3.65;;
22150;SDS011;11241;47.078;15.462;2022-07-04T10:57:45;9.45;;;3.42;;
22150;SDS011;11241;47.078;15.462;2022-07-04T11:00:07;8.25;;;3.40;;
22150;SDS011;11241;47.078;15.462;2022-07-04T11:07:03;6.03;;;3.35;;
22150;SDS011;11241;47.078;15.462;2022-07-04T11:09:22;8.98;;;3.70;;
22150;SDS011;11241;47.078;15.462;2022-07-04T11:16:53;6.03;;;3.60;;
22150;SDS011;11241;47.078;15.462;2022-07-04T11:19:14;8.82;;;3.45;;
22150;SDS011;11241;47.078;15.462;2022-07-04T11:21:32;5.88;;;3.60;;
22150;SDS011;11241;47.078;15.462;2022-07-04T11:23:50;3.65;;;3.22;;
22150;SDS011;11241;47.078;15.462;2022-07-04T11:26:09;6.30;;;3.70;;
22150;SDS011;11241;47.078;15.462;2022-07-04T11:28:31;7.05;;;3.75;;
22150;SDS011;11241;47.078;15.462;2022-07-04T11:31:02;6.72;;;3.75;;
22150;SDS011;11241;47.078;15.462;2022-07-04T11:33:21;9.13;;;3.45;;
22150;SDS011;11241;47.078;15.462;2022-07-04T11:35:39;5.93;;;3.53;;
22150;SDS011;11241;47.078;15.462;2022-07-04T11:37:57;13.10;;;4.20;;
22150;SDS011;11241;47.078;15.462;2022-07-04T11:40:15;10.88;;;2.85;;
22150;SDS011;11241;47.078;15.462;2022-07-04T11:43:05;7.70;;;2.47;;
22150;SDS011;11241;47.078;15.462;2022-07-04T11:45:42;6.57;;;3.03;;
22150;SDS011;11241;47.078;15.462;2022-07-04T11:48:00;5.00;;;2.80;;
22150;SDS011;11241;47.078;15.462;2022-07-04T11:50:17;3.85;;;2.88;;
22150;SDS011;11241;47.078;15.462;2022-07-04T11:55:17;5.45;;;2.95;;
22150;SDS011;11241;47.078;15.462;2022-07-04T11:57:36;4.68;;;2.85;;
22150;SDS011;11241;47.078;15.462;2022-07-04T11:59:58;3.90;;;3.53;;
22150;SDS011;11241;47.078;15.462;2022-07-04T12:02:17;3.15;;;2.70;;
22150;SDS011;11241;47.078;15.462;2022-07-04T12:04:35;3.85;;;2.65;;
22150;SDS011;11241;47.078;15.462;2022-07-04T12:06:55;4.78;;;2.80;;
22150;SDS011;11241;47.078;15.462;2022-07-04T12:09:13;7.28;;;2.78;;
22150;SDS011;11241;47.078;15.462;2022-07-04T12:14:13;6.40;;;2.75;;
22150;SDS011;11241;47.078;15.462;2022-07-04T12:16:31;3.72;;;3.20;;
22150;SDS011;11241;47.078;15.462;2022-07-04T12:18:49;3.63;;;3.05;;
22150;SDS011;11241;47.078;15.462;2022-07-04T12:21:11;5.95;;;3.28;;
22150;SDS011;11241;47.078;15.462;2022-07-04T12:23:30;3.85;;;3.40;;
22150;SDS011;11241;47.078;15.462;2022-07-04T12:25:48;7.45;;;3.40;;
22150;SDS011;11241;47.078;15.462;2022-07-04T12:28:08;3.33;;;3.03;;
22150;SDS011;11241;47.078;15.462;2022-07-04T12:30:27;10.68;;;3.25;;
22150;SDS011;11241;47.078;15.462;2022-07-04T12:32:49;4.35;;;2.78;;
22150;SDS011;11241;47.078;15.462;2022-07-04T12:35:07;4.35;;;3.00;;
22150;SDS011;11241;47.078;15.462;2022-07-04T12:37:27;3.20;;;2.90;;
22150;SDS011;11241;47.078;15.462;2022-07-04T12:39:45;5.28;;;3.13;;
22150;SDS011;11241;47.078;15.462;2022-07-04T12:42:07;3.10;;;2.90;;
22150;SDS011;11241;47.078;15.462;2022-07-04T12:46:43;5.90;;;3.28;;
22150;SDS011;11241;47.078;15.462;2022-07-04T12:49:21;3.28;;;2.92;;
22150;SDS011;11241;47.078;15.462;2022-07-04T12:51:39;6.65;;;3.30;;
22150;SDS011;11241;47.078;15.462;2022-07-04T12:53:57;6.38;;;3.35;;
22150;SDS011;11241;47.078;15.462;2022-07-04T12:58:48;4.15;;;3.00;;
22150;SDS011;11241;47.078;15.462;2022-07-04T13:01:06;5.93;;;2.70;;
22150;SDS011;11241;47.078;15.462;2022-07-04T13:03:25;3.40;;;2.95;;
22150;SDS011;11241;47.078;15.462;2022-07-04T13:05:42;6.05;;;3.05;;
22150;SDS011;11241;47.078;15.462;2022-07-04T13:08:01;4.95;;;3.10;;
22150;SDS011;11241;47.078;15.462;2022-07-04T13:10:18;5.53;;;3.40;;
22150;SDS011;11241;47.078;15.462;2022-07-04T13:12:36;5.00;;;2.92;;
22150;SDS011;11241;47.078;15.462;2022-07-04T13:14:55;3.70;;;3.28;;
22150;SDS011;11241;47.078;15.462;2022-07-04T13:17:13;4.90;;;3.42;;
22150;SDS011;11241;47.078;15.462;2022-07-04T13:19:31;9.80;;;3.75;;
22150;SDS011;11241;47.078;15.462;2022-07-04T13:21:49;4.40;;;3.40;;
22150;SDS011;11241;47.078;15.462;2022-07-04T13:24:08;4.35;;;3.03;;
22150;SDS011;11241;47.078;15.462;2022-07-04T13:26:26;3.50;;;3.20;;
22150;SDS011;11241;47.078;15.462;2022-07-04T13:28:46;4.45;;;3.03;;
22150;SDS011;11241;47.078;15.462;2022-07-04T13:31:04;4.55;;;3.50;;
22150;SDS011;11241;47.078;15.462;2022-07-04T13:33:22;5.63;;;3.30;;
22150;SDS011;11241;47.078;15.462;2022-07-04T13:35:40;3.92;;;3.40;;
22150;SDS011;11241;47.078;15.462;2022-07-04T13:38:00;4.85;;;3.50;;
22150;SDS011;11241;47.078;15.462;2022-07-04T13:40:18;7.45;;;3.60;;
22150;SDS011;11241;47.078;15.462;2022-07-04T13:42:36;6.10;;;3.40;;
22150;SDS011;11241;47.078;15.462;2022-07-04T13:45:12;7.95;;;3.10;;
22150;SDS011;11241;47.078;15.462;2022-07-04T13:47:31;5.72;;;3.08;;
22150;SDS011;11241;47.078;15.462;2022-07-04T13:49:49;6.85;;;3.55;;
22150;SDS011;11241;47.078;15.462;2022-07-04T13:52:07;5.68;;;3.40;;
22150;SDS011;11241;47.078;15.462;2022-07-04T13:54:25;3.90;;;3.25;;
22150;SDS011;11241;47.078;15.462;2022-07-04T13:56:43;4.20;;;3.28;;
22150;SDS011;11241;47.078;15.462;2022-07-04T13:59:01;5.35;;;3.13;;
22150;SDS011;11241;47.078;15.462;2022-07-04T14:01:20;5.18;;;3.25;;
22150;SDS011;11241;47.078;15.462;2022-07-04T14:03:38;6.63;;;3.20;;
22150;SDS011;11241;47.078;15.462;2022-07-04T14:05:56;9.38;;;3.33;;
22150;SDS011;11241;47.078;15.462;2022-07-04T14:08:13;4.45;;;3.45;;
22150;SDS011;11241;47.078;15.462;2022-07-04T14:10:31;3.83;;;3.10;;